createdAt,value
2019-02-20T00:00:14.735Z,61.77
2019-02-20T00:02:42.887Z,65.13
2019-02-20T00:05:11.251Z,62.70
2019-02-20T00:07:39.594Z,62.23
2019-02-20T00:10:08.070Z,92.07
2019-02-20T00:12:36.656Z,89.60
2019-02-20T00:15:05.785Z,84.67
2019-02-20T00:17:34.131Z,82.40
2019-02-20T00:20:02.510Z,72.57
2019-02-20T00:22:40.074Z,77.00
2019-02-20T00:25:02.228Z,66.93
2019-02-20T00:27:30.538Z,66.63
2019-02-20T00:30:01.313Z,67.00
2019-02-20T00:32:29.507Z,62.93
2019-02-20T00:34:57.921Z,63.80
2019-02-20T00:37:26.295Z,62.47
2019-02-20T00:39:54.739Z,58.87
2019-02-20T00:42:23.131Z,60.00
2019-02-20T00:44:56.095Z,58.57
2019-02-20T00:47:31.892Z,58.73
2019-02-20T00:50:00.416Z,59.03
2019-02-20T00:52:30.722Z,64.30
2019-02-20T00:54:58.878Z,64.07
2019-02-20T00:57:27.352Z,66.63
2019-02-20T00:59:57.489Z,65.23
2019-02-20T01:02:25.422Z,60.63
2019-02-20T01:04:53.898Z,59.30
2019-02-20T01:07:22.286Z,61.93
2019-02-20T01:09:50.571Z,57.63
2019-02-20T01:12:18.760Z,57.63
2019-02-20T01:14:47.116Z,59.87
2019-02-20T01:17:15.602Z,57.20
2019-02-20T01:19:43.937Z,55.30
2019-02-20T01:22:12.091Z,57.87
2019-02-20T01:24:40.834Z,54.97
2019-02-20T01:27:09.175Z,48.40
2019-02-20T01:29:37.334Z,48.33
2019-02-20T01:32:05.551Z,47.20
2019-02-20T01:34:34.003Z,47.20
2019-02-20T01:37:02.376Z,46.67
2019-02-20T01:39:30.520Z,46.53
2019-02-20T01:41:58.708Z,45.70
2019-02-20T01:44:26.870Z,42.50
2019-02-20T01:46:55.172Z,39.23
2019-02-20T01:49:23.364Z,41.20
2019-02-20T01:51:51.517Z,41.37
2019-02-20T01:54:19.666Z,40.13
2019-02-20T01:56:47.914Z,38.17
2019-02-20T01:59:16.467Z,44.77
2019-02-20T02:01:44.614Z,40.10
2019-02-20T02:04:13.375Z,40.07
2019-02-20T02:06:41.675Z,39.07
2019-02-20T02:09:10.192Z,38.60
2019-02-20T02:11:38.386Z,39.27
2019-02-20T02:14:06.844Z,39.37
2019-02-20T02:16:35.491Z,38.83
2019-02-20T02:19:03.937Z,43.17
2019-02-20T02:21:33.875Z,44.80
2019-02-20T02:24:02.194Z,44.60
2019-02-20T02:26:31.671Z,43.23
2019-02-20T02:28:59.823Z,45.73
2019-02-20T02:31:27.977Z,44.47
2019-02-20T02:33:56.190Z,44.30
2019-02-20T02:36:24.386Z,46.63
2019-02-20T02:38:52.707Z,44.57
2019-02-20T02:41:21.260Z,45.23
2019-02-20T02:43:49.480Z,45.30
2019-02-20T02:46:17.654Z,43.40
2019-02-20T02:48:46.054Z,44.57
2019-02-20T02:51:14.475Z,42.53
2019-02-20T02:53:43.242Z,41.83
2019-02-20T02:56:11.455Z,40.63
2019-02-20T02:58:39.681Z,40.60
2019-02-20T03:01:07.964Z,42.87
2019-02-20T03:03:36.571Z,40.80
2019-02-20T03:06:04.831Z,41.97
2019-02-20T03:08:32.976Z,40.37
2019-02-20T03:11:01.167Z,38.53
2019-02-20T03:13:29.598Z,40.93
2019-02-20T03:15:57.748Z,43.37
2019-02-20T03:18:25.968Z,45.73
2019-02-20T03:20:54.119Z,45.07
2019-02-20T03:23:22.408Z,43.20
2019-02-20T03:25:50.784Z,43.10
2019-02-20T03:28:20.239Z,44.33
2019-02-20T03:30:48.568Z,41.97
2019-02-20T03:33:16.943Z,41.27
2019-02-20T03:35:45.319Z,40.23
2019-02-20T03:38:13.485Z,41.80
2019-02-20T03:40:41.698Z,39.53
2019-02-20T03:43:09.865Z,41.27
2019-02-20T03:45:37.994Z,38.97
2019-02-20T03:48:06.194Z,40.30
2019-02-20T03:50:34.499Z,43.17
2019-02-20T03:53:02.930Z,46.13
2019-02-20T03:55:31.263Z,46.70
2019-02-20T03:57:59.399Z,43.93
2019-02-20T04:00:27.559Z,41.23
2019-02-20T04:02:56.330Z,43.87
2019-02-20T04:05:24.551Z,43.07
2019-02-20T04:07:52.699Z,42.97
2019-02-20T04:10:20.895Z,45.00
2019-02-20T04:12:49.894Z,48.23
2019-02-20T04:15:18.579Z,47.73
2019-02-20T04:17:47.130Z,49.37
2019-02-20T04:20:15.390Z,51.47
2019-02-20T04:22:43.617Z,53.20
2019-02-20T04:25:12.218Z,53.83
2019-02-20T04:27:40.385Z,54.20
2019-02-20T04:30:09.847Z,54.23
2019-02-20T04:32:38.036Z,53.23
2019-02-20T04:35:06.186Z,51.23
2019-02-20T04:37:34.590Z,48.17
2019-02-20T04:40:02.777Z,50.33
2019-02-20T04:42:31.440Z,48.43
2019-02-20T04:44:59.640Z,48.93
2019-02-20T04:47:27.832Z,48.20
2019-02-20T04:49:56.135Z,50.27
2019-02-20T04:52:24.293Z,50.00
2019-02-20T04:54:52.608Z,51.13
2019-02-20T04:57:21.060Z,51.23
2019-02-20T04:59:49.479Z,49.60
2019-02-20T05:02:17.925Z,52.33
2019-02-20T05:04:46.190Z,43.67
2019-02-20T05:07:14.609Z,46.03
2019-02-20T05:09:43.088Z,44.57
2019-02-20T05:12:11.432Z,40.57
2019-02-20T05:14:39.752Z,45.60
2019-02-20T05:17:09.584Z,45.57
2019-02-20T05:19:37.742Z,46.33
2019-02-20T05:22:06.064Z,49.80
2019-02-20T05:24:34.649Z,45.77
2019-02-20T05:27:03.487Z,46.60
2019-02-20T05:29:31.819Z,55.57
2019-02-20T05:32:01.351Z,60.43
2019-02-20T05:34:29.698Z,59.90
2019-02-20T05:36:57.854Z,63.73
2019-02-20T05:39:26.139Z,62.83
2019-02-20T05:41:54.421Z,54.47
2019-02-20T05:44:22.559Z,50.97
2019-02-20T05:46:50.836Z,48.73
2019-02-20T05:49:18.996Z,47.80
2019-02-20T05:51:47.573Z,44.67
2019-02-20T05:54:16.015Z,49.47
2019-02-20T05:56:44.536Z,56.80
2019-02-20T05:59:13.164Z,62.97
2019-02-20T06:01:41.357Z,76.17
2019-02-20T06:04:09.921Z,77.83
2019-02-20T06:06:38.325Z,82.27
2019-02-20T06:09:06.514Z,99.73
2019-02-20T06:11:34.747Z,91.80
2019-02-20T06:14:03.230Z,74.77
2019-02-20T06:16:31.720Z,84.73
2019-02-20T06:19:00.002Z,82.80
2019-02-20T06:21:28.373Z,77.23
2019-02-20T06:23:56.769Z,76.00
2019-02-20T06:26:24.910Z,58.97
2019-02-20T06:28:53.153Z,56.77
2019-02-20T06:31:21.439Z,52.07
2019-02-20T06:33:50.771Z,58.23
2019-02-20T06:36:19.275Z,57.77
2019-02-20T06:38:47.608Z,53.50
2019-02-20T06:41:16.140Z,52.63
2019-02-20T06:43:44.290Z,51.47
2019-02-20T06:46:12.849Z,51.73
2019-02-20T06:48:41.011Z,52.23
2019-02-20T06:51:09.337Z,49.87
2019-02-20T06:53:37.987Z,49.40
2019-02-20T06:56:06.603Z,48.60
2019-02-20T06:58:35.129Z,48.23
2019-02-20T07:01:03.622Z,44.07
2019-02-20T07:03:32.317Z,42.03
2019-02-20T07:06:17.370Z,34.37
2019-02-20T07:08:49.972Z,32.90
2019-02-20T07:11:28.600Z,32.17
2019-02-20T07:13:58.697Z,30.33
2019-02-20T07:16:31.614Z,30.80
2019-02-20T07:19:04.083Z,36.53
2019-02-20T07:21:39.916Z,34.03
2019-02-20T07:24:09.829Z,33.50
2019-02-20T07:26:39.612Z,32.67
2019-02-20T07:29:18.834Z,30.43
2019-02-20T07:31:46.995Z,23.60
2019-02-20T07:34:15.253Z,22.70
2019-02-20T07:36:43.456Z,24.40
2019-02-20T07:39:11.800Z,26.30
2019-02-20T07:41:40.384Z,26.23
2019-02-20T07:44:08.830Z,23.80
2019-02-20T07:46:36.989Z,22.67
2019-02-20T07:49:05.151Z,23.90
2019-02-20T07:51:33.371Z,23.20
2019-02-20T07:54:01.991Z,23.27
2019-02-20T07:56:30.157Z,20.57
2019-02-20T07:58:58.351Z,22.13
2019-02-20T08:01:26.514Z,19.73
2019-02-20T08:03:54.697Z,16.57
2019-02-20T08:06:23.415Z,16.47
2019-02-20T08:08:51.570Z,17.97
2019-02-20T08:11:19.721Z,15.30
2019-02-20T08:13:48.003Z,17.20
2019-02-20T08:16:16.562Z,15.03
2019-02-20T08:18:44.692Z,17.03
2019-02-20T08:21:12.896Z,16.47
2019-02-20T08:23:41.238Z,17.07
2019-02-20T08:26:09.458Z,19.57
2019-02-20T08:28:38.051Z,15.70
2019-02-20T08:31:06.226Z,15.77
2019-02-20T08:33:34.669Z,16.37
2019-02-20T08:36:04.282Z,15.87
2019-02-20T08:38:32.695Z,15.83
2019-02-20T08:41:00.851Z,15.37
2019-02-20T08:43:29.805Z,16.23
2019-02-20T08:45:57.970Z,15.47
2019-02-20T08:48:26.587Z,16.10
2019-02-20T08:50:54.758Z,13.87
2019-02-20T08:53:22.913Z,13.67
2019-02-20T08:55:51.067Z,15.40
2019-02-20T08:58:19.271Z,11.40
2019-02-20T09:00:47.426Z,15.33
2019-02-20T09:03:15.749Z,14.97
2019-02-20T09:05:43.949Z,14.10
2019-02-20T09:08:12.109Z,13.90
2019-02-20T09:10:40.539Z,13.93
2019-02-20T09:13:08.694Z,14.03
2019-02-20T09:15:38.578Z,18.67
2019-02-20T09:18:07.216Z,15.40
2019-02-20T09:20:35.557Z,14.67
2019-02-20T09:23:04.169Z,15.57
2019-02-20T09:25:41.071Z,12.30
2019-02-20T09:28:02.427Z,11.83
2019-02-20T09:30:30.668Z,11.27
2019-02-20T09:33:00.094Z,10.73
2019-02-20T09:35:28.553Z,10.60
2019-02-20T09:37:58.068Z,9.87
2019-02-20T09:40:26.542Z,9.60
2019-02-20T09:42:55.042Z,9.87
2019-02-20T09:45:23.207Z,10.03
2019-02-20T09:47:51.576Z,9.40
2019-02-20T09:50:23.122Z,216.50
2019-02-20T09:52:53.440Z,170.00
2019-02-20T09:55:21.590Z,92.77
2019-02-20T09:57:49.963Z,156.13
2019-02-20T10:00:18.945Z,169.37
2019-02-20T10:02:47.463Z,33.07
2019-02-20T10:05:16.161Z,33.00
2019-02-20T10:07:44.428Z,150.90
2019-02-20T10:10:12.746Z,77.63
2019-02-20T10:12:41.317Z,27.73
2019-02-20T10:15:13.995Z,11.93
2019-02-20T10:17:46.095Z,12.50
2019-02-20T10:20:14.603Z,10.20
2019-02-20T10:22:42.750Z,10.77
2019-02-20T10:25:11.524Z,10.10
2019-02-20T10:27:39.666Z,13.47
2019-02-20T10:30:09.566Z,11.03
2019-02-20T10:32:37.858Z,13.80
2019-02-20T10:35:07.180Z,18.93
2019-02-20T10:37:35.736Z,11.13
2019-02-20T10:40:06.101Z,8.57
2019-02-20T10:42:34.255Z,7.83
2019-02-20T10:45:02.408Z,7.80
2019-02-20T10:47:30.596Z,8.13
2019-02-20T10:49:58.748Z,6.93
2019-02-20T10:52:26.902Z,7.40
2019-02-20T10:54:57.829Z,6.20
2019-02-20T10:57:25.012Z,7.53
2019-02-20T10:59:53.174Z,76.53
2019-02-20T11:02:21.365Z,11.23
2019-02-20T11:04:50.188Z,48.77
2019-02-20T11:07:18.500Z,8.03
2019-02-20T11:09:46.721Z,201.80
2019-02-20T11:12:15.246Z,9.10
2019-02-20T11:14:43.459Z,18.67
2019-02-20T11:17:11.931Z,13.13
2019-02-20T11:19:40.084Z,8.33
2019-02-20T11:22:08.443Z,6.03
2019-02-20T11:24:36.633Z,15.37
2019-02-20T11:27:04.930Z,40.83
2019-02-20T11:29:33.283Z,47.13
2019-02-20T11:32:01.536Z,7.93
2019-02-20T11:34:29.722Z,7.27
2019-02-20T11:36:58.112Z,8.23
2019-02-20T11:39:26.594Z,8.70
2019-02-20T11:41:54.824Z,25.97
2019-02-20T11:44:22.974Z,7.33
2019-02-20T11:46:51.212Z,6.53
2019-02-20T11:49:19.584Z,6.33
2019-02-20T11:51:48.018Z,10.20
2019-02-20T11:54:16.365Z,6.70
2019-02-20T11:56:44.524Z,7.27
2019-02-20T11:59:12.692Z,165.03
2019-02-20T12:01:40.882Z,8.40
2019-02-20T12:04:09.039Z,6.83
2019-02-20T12:06:37.283Z,6.10
2019-02-20T12:09:05.481Z,5.07
2019-02-20T12:11:33.753Z,8.20
2019-02-20T12:14:02.085Z,12.87
2019-02-20T12:16:30.281Z,6.17
2019-02-20T12:18:58.572Z,6.27
2019-02-20T12:21:27.172Z,7.00
2019-02-20T12:23:55.703Z,12.93
2019-02-20T12:26:24.146Z,5.70
2019-02-20T12:28:52.644Z,6.30
2019-02-20T12:31:21.005Z,5.87
2019-02-20T12:33:49.484Z,6.10
2019-02-20T12:36:17.632Z,6.53
2019-02-20T12:38:45.891Z,6.83
2019-02-20T12:41:14.241Z,21.63
2019-02-20T12:43:43.508Z,8.13
2019-02-20T12:46:11.868Z,7.90
2019-02-20T12:48:40.408Z,8.57
2019-02-20T12:51:08.584Z,29.27
2019-02-20T12:53:36.847Z,15.57
2019-02-20T12:56:09.992Z,7.43
2019-02-20T12:58:35.080Z,6.70
2019-02-20T13:01:03.422Z,6.30
2019-02-20T13:03:31.646Z,6.17
2019-02-20T13:05:59.856Z,6.30
2019-02-20T13:08:27.985Z,8.37
2019-02-20T13:10:56.677Z,13.60
2019-02-20T13:13:25.236Z,11.50
2019-02-20T13:15:53.644Z,6.03
2019-02-20T13:18:21.960Z,9.23
2019-02-20T13:20:50.309Z,6.97
2019-02-20T13:23:20.341Z,8.70
2019-02-20T13:25:48.639Z,8.63
2019-02-20T13:28:16.864Z,13.63
2019-02-20T13:30:45.524Z,9.83
2019-02-20T13:33:13.826Z,9.17
2019-02-20T13:35:42.059Z,15.77
2019-02-20T13:38:13.242Z,7.30
2019-02-20T13:40:41.527Z,7.17
2019-02-20T13:43:09.694Z,18.23
2019-02-20T13:45:42.525Z,8.60
2019-02-20T13:48:10.852Z,8.57
2019-02-20T13:50:39.216Z,11.03
2019-02-20T13:53:07.644Z,10.13
2019-02-20T13:55:35.805Z,11.13
2019-02-20T13:58:04.135Z,7.50
2019-02-20T14:00:32.560Z,6.70
2019-02-20T14:03:01.401Z,8.03
2019-02-20T14:05:29.631Z,12.70
2019-02-20T14:07:57.831Z,8.47
2019-02-20T14:10:26.322Z,12.10
2019-02-20T14:12:57.600Z,12.17
2019-02-20T14:15:25.821Z,7.30
2019-02-20T14:17:54.142Z,6.10
2019-02-20T14:20:22.809Z,6.20
2019-02-20T14:22:51.170Z,14.47
2019-02-20T14:25:19.508Z,14.47
2019-02-20T14:28:00.184Z,16.80
2019-02-20T14:30:29.065Z,11.37
2019-02-20T14:32:57.293Z,15.27
2019-02-20T14:35:25.819Z,17.37
2019-02-20T14:37:55.538Z,10.57
2019-02-20T14:40:24.969Z,10.00
2019-02-20T14:42:53.349Z,11.00
2019-02-20T14:45:21.734Z,9.53
2019-02-20T14:47:51.257Z,10.67
2019-02-20T14:50:20.865Z,13.67
2019-02-20T14:52:49.855Z,15.73
2019-02-20T14:55:21.318Z,13.90
2019-02-20T14:57:51.117Z,14.77
2019-02-20T15:00:24.821Z,10.17
2019-02-20T15:02:53.286Z,10.63
2019-02-20T15:05:21.739Z,15.20
2019-02-20T15:07:50.103Z,13.23
2019-02-20T15:10:19.130Z,17.23
2019-02-20T15:12:51.285Z,9.73
2019-02-20T15:15:20.979Z,33.93
2019-02-20T15:20:38.192Z,14.70
2019-02-20T15:23:16.791Z,9.43
2019-02-20T15:25:45.399Z,12.50
2019-02-20T15:28:16.078Z,11.03
2019-02-20T15:30:47.025Z,11.63
2019-02-20T15:33:15.596Z,13.23
2019-02-20T15:35:44.637Z,18.77
2019-02-20T15:38:12.959Z,133.77
2019-02-20T15:40:44.419Z,21.67
2019-02-20T15:43:13.132Z,16.73
2019-02-20T15:45:41.878Z,13.50
2019-02-20T15:48:10.698Z,28.43
2019-02-20T15:50:42.995Z,53.23
2019-02-20T15:53:11.264Z,38.97
2019-02-20T15:55:41.177Z,44.27
2019-02-20T15:58:10.547Z,48.43
2019-02-20T16:00:39.062Z,31.50
2019-02-20T16:03:07.207Z,25.90
2019-02-20T16:05:35.818Z,12.17
2019-02-20T16:08:04.760Z,9.17
2019-02-20T16:10:34.779Z,11.33
2019-02-20T16:13:04.303Z,13.47
2019-02-20T16:15:33.014Z,20.30
2019-02-20T16:18:01.475Z,22.40
2019-02-20T16:20:36.256Z,23.60
2019-02-20T16:23:05.626Z,34.53
2019-02-20T16:25:36.193Z,57.43
2019-02-20T16:28:04.836Z,49.90
2019-02-20T16:30:33.701Z,86.63
2019-02-20T16:33:01.947Z,75.03
2019-02-20T16:35:30.533Z,215.80
2019-02-20T16:38:00.597Z,116.97
2019-02-20T16:40:29.283Z,131.93
2019-02-20T16:43:01.590Z,24.90
2019-02-20T16:45:31.184Z,42.20
2019-02-20T16:47:59.569Z,30.60
2019-02-20T16:50:28.127Z,40.83
2019-02-20T16:52:57.805Z,24.47
2019-02-20T16:55:26.106Z,46.73
2019-02-20T16:57:56.916Z,44.23
2019-02-20T17:00:24.769Z,42.53
2019-02-20T17:02:53.451Z,30.50
2019-02-20T17:05:22.438Z,53.43
2019-02-20T17:07:50.936Z,34.33
2019-02-20T17:10:19.844Z,44.47
2019-02-20T17:12:48.284Z,43.70
2019-02-20T17:15:17.468Z,63.33
2019-02-20T17:17:45.947Z,96.37
2019-02-20T17:20:17.597Z,103.43
2019-02-20T17:22:46.626Z,159.63
2019-02-20T17:25:19.756Z,84.50
2019-02-20T17:27:47.986Z,126.90
2019-02-20T17:30:16.960Z,61.93
2019-02-20T17:32:45.616Z,30.73
2019-02-20T17:35:14.122Z,48.83
2019-02-20T17:37:43.214Z,76.83
2019-02-20T17:40:12.273Z,57.80
2019-02-20T17:42:41.102Z,47.57
2019-02-20T17:45:11.606Z,55.50
2019-02-20T17:47:47.482Z,43.63
2019-02-20T17:50:17.856Z,74.73
2019-02-20T17:52:46.605Z,57.77
2019-02-20T17:55:18.956Z,90.93
2019-02-20T17:57:47.382Z,75.70
2019-02-20T18:00:19.184Z,100.57
2019-02-20T18:02:51.514Z,53.97
2019-02-20T18:05:19.909Z,45.93
2019-02-20T18:07:51.861Z,45.97
2019-02-20T18:10:19.463Z,46.43
2019-02-20T18:12:47.888Z,52.37
2019-02-20T18:15:17.209Z,41.47
2019-02-20T18:17:45.748Z,38.93
2019-02-20T18:20:14.038Z,38.20
2019-02-20T18:22:43.802Z,35.17
2019-02-20T18:25:12.265Z,32.10
2019-02-20T18:27:41.375Z,29.60
2019-02-20T18:30:12.318Z,38.63
2019-02-20T18:32:41.475Z,38.37
2019-02-20T18:35:15.792Z,39.07
2019-02-20T18:37:41.226Z,36.87
2019-02-20T18:40:10.750Z,34.23
2019-02-20T18:42:38.965Z,32.60
2019-02-20T18:45:08.703Z,30.50
2019-02-20T18:47:38.557Z,21.67
2019-02-20T18:50:08.324Z,23.97
2019-02-20T18:52:36.543Z,23.83
2019-02-20T18:55:06.517Z,26.17
2019-02-20T18:57:37.230Z,28.80
2019-02-20T19:00:07.166Z,35.30
2019-02-20T19:02:35.328Z,222.63
2019-02-20T19:05:03.983Z,70.17
2019-02-20T19:07:32.486Z,63.47
2019-02-20T19:10:00.752Z,70.23
2019-02-20T19:12:45.222Z,46.60
2019-02-20T19:15:21.235Z,77.60
2019-02-20T19:18:00.623Z,69.43
2019-02-20T19:20:31.994Z,68.67
2019-02-20T19:23:20.714Z,72.83
2019-02-20T19:25:54.438Z,68.03
2019-02-20T19:28:27.665Z,64.23
2019-02-20T19:30:58.781Z,79.97
2019-02-20T19:33:46.058Z,81.83
2019-02-20T19:36:16.548Z,69.47
2019-02-20T19:38:58.915Z,76.20
2019-02-20T19:41:46.026Z,78.97
2019-02-20T19:44:18.959Z,49.97
2019-02-20T19:46:48.787Z,44.43
2019-02-20T19:49:37.242Z,48.33
2019-02-20T19:52:09.802Z,34.97
2019-02-20T19:54:42.069Z,34.87
2019-02-20T19:57:14.870Z,35.20
2019-02-20T19:59:48.785Z,39.53
2019-02-20T20:02:32.402Z,38.27
2019-02-20T20:05:11.818Z,31.80
2019-02-20T20:07:51.820Z,30.53
2019-02-20T20:10:30.803Z,32.73
2019-02-20T20:13:04.310Z,30.07
2019-02-20T20:15:36.835Z,25.90
2019-02-20T20:18:23.221Z,34.27
2019-02-20T20:20:59.255Z,26.30
2019-02-20T20:23:46.204Z,25.80
2019-02-20T20:26:23.096Z,25.77
2019-02-20T20:28:54.222Z,26.33
2019-02-20T20:31:34.069Z,23.90
2019-02-20T20:34:13.888Z,19.40
2019-02-20T20:36:44.302Z,28.83
2019-02-20T20:39:20.105Z,28.90
2019-02-20T20:41:53.012Z,30.03
2019-02-20T20:44:28.900Z,24.00
2019-02-20T20:47:02.463Z,26.40
2019-02-20T20:49:39.892Z,42.73
2019-02-20T20:52:26.517Z,35.53
2019-02-20T20:55:00.703Z,93.73
2019-02-20T20:57:43.535Z,31.93
2019-02-20T21:00:20.683Z,31.03
2019-02-20T21:02:51.086Z,23.70
2019-02-20T21:05:21.157Z,19.67
2019-02-20T21:07:51.474Z,33.03
2019-02-20T21:10:21.784Z,34.67
2019-02-20T21:13:08.059Z,23.00
2019-02-20T21:15:38.167Z,27.97
2019-02-20T21:18:24.641Z,18.93
2019-02-20T21:20:54.748Z,16.47
2019-02-20T21:23:42.661Z,14.90
2019-02-20T21:26:24.663Z,12.90
2019-02-20T21:28:57.993Z,14.70
2019-02-20T21:31:39.813Z,13.73
2019-02-20T21:34:09.663Z,13.97
2019-02-20T21:36:45.474Z,15.23
2019-02-20T21:39:18.113Z,10.43
2019-02-20T21:42:04.779Z,13.80
2019-02-20T21:44:35.216Z,13.10
2019-02-20T21:47:05.341Z,12.10
2019-02-20T21:49:41.151Z,12.60
2019-02-20T21:52:27.686Z,32.53
2019-02-20T21:55:00.469Z,23.53
2019-02-20T21:57:36.353Z,33.17
2019-02-20T22:00:15.247Z,27.37
2019-02-20T22:02:48.124Z,19.57
2019-02-20T22:05:34.322Z,21.20
2019-02-20T22:08:06.796Z,21.13
2019-02-20T22:10:48.687Z,29.27
2019-02-20T22:13:18.519Z,31.17
2019-02-20T22:15:51.384Z,31.80
2019-02-20T22:18:21.156Z,25.80
2019-02-20T22:21:07.485Z,27.57
2019-02-20T22:23:43.175Z,29.53
2019-02-20T22:26:12.992Z,29.03
2019-02-20T22:28:43.020Z,26.03
2019-02-20T22:31:15.515Z,24.57
2019-02-20T22:34:03.662Z,22.90
2019-02-20T22:36:42.575Z,22.30
2019-02-20T22:39:27.867Z,23.30
2019-02-20T22:42:12.680Z,22.60
2019-02-20T22:44:48.688Z,22.43
2019-02-20T22:47:27.591Z,26.47
2019-02-20T22:50:03.214Z,24.37
2019-02-20T22:52:36.027Z,16.53
2019-02-20T22:55:09.325Z,32.60
2019-02-20T22:57:39.353Z,39.30
2019-02-20T23:00:34.298Z,39.13
2019-02-20T23:03:04.942Z,34.13
2019-02-20T23:05:52.321Z,32.77
2019-02-20T23:08:22.125Z,33.10
2019-02-20T23:10:58.364Z,31.20
2019-02-20T23:13:28.385Z,31.20
2019-02-20T23:15:56.884Z,28.37
2019-02-20T23:18:25.368Z,34.30
2019-02-20T23:20:53.844Z,26.97
2019-02-20T23:23:21.937Z,22.30
2019-02-20T23:25:50.654Z,20.70
2019-02-20T23:28:18.838Z,21.20
2019-02-20T23:30:47.040Z,24.30
2019-02-20T23:33:15.391Z,20.40
2019-02-20T23:35:43.808Z,16.57
2019-02-20T23:38:12.163Z,14.73
2019-02-20T23:40:41.542Z,17.60
2019-02-20T23:43:09.959Z,21.37
2019-02-20T23:45:38.293Z,17.20
2019-02-20T23:48:06.724Z,21.87
2019-02-20T23:50:35.045Z,20.97
2019-02-20T23:53:03.625Z,20.87
2019-02-20T23:55:31.892Z,21.17
2019-02-20T23:58:00.048Z,14.00
